Kea — 9HA2207 — position and weather

sailwx.info

Track history (hours):
 
Tides and Currents Weather Stations Pressure Air Temp Water Temp Dewpoint Dewpoint Depression Visibility Wind Speed Wind Dir Waves Ship Positions

Kea

Last reported at 2016-Sep-10 08:05 UTC. Time now 2016-Sep-25 19:08 UTC.
Position N 29°37' E 122°33'.
Warning: this ship's position is 15 days out of date.

Length 225 m; draft 7.3 m.

Type: Cargo ship. MMSI: 248150000.

Date/timePositionNaut miles runAvg speedWind from/ knotsBaromVisibWave heightAir tempDewpointWater temp
2016-Sep-10 08:05N 29°37' E 122°33'510.1
2016-Sep-10 07:33N 29°40' E 122°28'1110.7
2016-Sep-10 06:33N 29°45' E 122°18'1010.2
2016-Sep-10 05:33N 29°53' E 122°10'1111.0
2016-Sep-10 04:33N 29°58' E 121°59'5 1.1
2016-Sep-10 00:23N 29°57' E 121°53'0 0.0
2016-Sep-09 23:23N 29°57' E 121°53'0 0.0
2016-Sep-09 15:23N 29°57' E 121°53'0 0.2
2016-Sep-09 14:03N 29°57' E 121°53'  
2016-Sep-07 08:28N 29°56' E 121°53'0 0.0
2016-Sep-07 07:28N 29°56' E 121°53'1 1.3
2016-Sep-07 06:33N 29°57' E 121°51'0 0.0
2016-Sep-07 04:10N 29°56' E 121°51'0 0.0
2016-Sep-07 03:22N 29°56' E 121°51'0 0.0
2016-Sep-06 11:10N 29°56' E 121°51'0 0.0
2016-Sep-06 07:33N 29°56' E 121°51'4 3.7
2016-Sep-06 06:33N 29°57' E 121°55'18 8.9
2016-Sep-06 04:33N 29°49' E 122°14'1110.7
2016-Sep-06 03:33N 29°45' E 122°25'1 1.1
2016-Sep-06 02:15N 29°45' E 122°27'0 0.1
2016-Sep-06 00:33N 29°45' E 122°27'0 0.1
2016-Sep-05 23:27N 29°45' E 122°27'0 0.1
2016-Sep-05 22:33N 29°45' E 122°27'0 0.1
2016-Sep-05 21:33N 29°45' E 122°27'0 0.0
2016-Sep-05 20:33N 29°45' E 122°27'0 0.1
2016-Sep-05 19:33N 29°45' E 122°27'0 0.1
2016-Sep-05 18:27N 29°45' E 122°27'0 0.1
2016-Sep-05 17:33N 29°45' E 122°27'0 0.1
2016-Sep-05 16:27N 29°45' E 122°27'0 0.1
2016-Sep-05 15:33N 29°45' E 122°27'0 0.1
2016-Sep-05 14:33N 29°45' E 122°27'0 0.1
2016-Sep-05 13:33N 29°45' E 122°27'0 0.0
2016-Sep-05 04:03N 29°45' E 122°27'0 0.1
2016-Sep-04 21:10N 29°45' E 122°27'0 0.1
2016-Sep-04 18:33N 29°45' E 122°27'0 0.1
2016-Sep-04 15:27N 29°45' E 122°27'0 0.0
2016-Sep-04 13:27N 29°45' E 122°27'0 0.1
2016-Sep-04 12:27N 29°45' E 122°27'0 0.2
2016-Sep-04 11:27N 29°45' E 122°27'0 0.0
2016-Sep-04 00:03N 29°45' E 122°27'0 0.0
2016-Sep-03 03:21N 29°45' E 122°27'0 0.1
2016-Sep-03 02:33N 29°45' E 122°27'0 0.1
2016-Sep-02 23:27N 29°45' E 122°27'0 0.1
2016-Sep-02 21:33N 29°45' E 122°27'0 0.0
2016-Sep-02 10:33N 29°45' E 122°27'0 0.1
2016-Sep-02 09:21N 29°45' E 122°27'1 0.8
2016-Sep-02 08:34N 29°45' E 122°27'7 7.4
2016-Sep-02 07:33N 29°46' E 122°36'  
Track history (hours):
 
Tides and Currents Weather Stations Pressure Air Temp Water Temp Dewpoint Dewpoint Depression Visibility Wind Speed Wind Dir Waves Ship Positions

Kea

Last reported at 2016-Sep-10 08:05 UTC. Time now 2016-Sep-25 19:08 UTC.
Position N 29°37' E 122°33'.
Warning: this ship's position is 15 days out of date.

Length 225 m; draft 7.3 m.

Type: Cargo ship. MMSI: 248150000.

Date/timePositionNaut miles runAvg speedWind from/ knotsBaromVisibWave heightAir tempDewpointWater temp
2016-Sep-10 08:05N 29°37' E 122°33'510.1
2016-Sep-10 07:33N 29°40' E 122°28'1110.7
2016-Sep-10 06:33N 29°45' E 122°18'1010.2
2016-Sep-10 05:33N 29°53' E 122°10'1111.0
2016-Sep-10 04:33N 29°58' E 121°59'5 1.1
2016-Sep-10 00:23N 29°57' E 121°53'0 0.0
2016-Sep-09 23:23N 29°57' E 121°53'0 0.0
2016-Sep-09 15:23N 29°57' E 121°53'0 0.2
2016-Sep-09 14:03N 29°57' E 121°53'  
2016-Sep-07 08:28N 29°56' E 121°53'0 0.0
2016-Sep-07 07:28N 29°56' E 121°53'1 1.3
2016-Sep-07 06:33N 29°57' E 121°51'0 0.0
2016-Sep-07 04:10N 29°56' E 121°51'0 0.0
2016-Sep-07 03:22N 29°56' E 121°51'0 0.0
2016-Sep-06 11:10N 29°56' E 121°51'0 0.0
2016-Sep-06 07:33N 29°56' E 121°51'4 3.7
2016-Sep-06 06:33N 29°57' E 121°55'18 8.9
2016-Sep-06 04:33N 29°49' E 122°14'1110.7
2016-Sep-06 03:33N 29°45' E 122°25'1 1.1
2016-Sep-06 02:15N 29°45' E 122°27'0 0.1
2016-Sep-06 00:33N 29°45' E 122°27'0 0.1
2016-Sep-05 23:27N 29°45' E 122°27'0 0.1
2016-Sep-05 22:33N 29°45' E 122°27'0 0.1
2016-Sep-05 21:33N 29°45' E 122°27'0 0.0
2016-Sep-05 20:33N 29°45' E 122°27'0 0.1
2016-Sep-05 19:33N 29°45' E 122°27'0 0.1
2016-Sep-05 18:27N 29°45' E 122°27'0 0.1
2016-Sep-05 17:33N 29°45' E 122°27'0 0.1
2016-Sep-05 16:27N 29°45' E 122°27'0 0.1
2016-Sep-05 15:33N 29°45' E 122°27'0 0.1
2016-Sep-05 14:33N 29°45' E 122°27'0 0.1
2016-Sep-05 13:33N 29°45' E 122°27'0 0.0
2016-Sep-05 04:03N 29°45' E 122°27'0 0.1
2016-Sep-04 21:10N 29°45' E 122°27'0 0.1
2016-Sep-04 18:33N 29°45' E 122°27'0 0.1
2016-Sep-04 15:27N 29°45' E 122°27'0 0.0
2016-Sep-04 13:27N 29°45' E 122°27'0 0.1
2016-Sep-04 12:27N 29°45' E 122°27'0 0.2
2016-Sep-04 11:27N 29°45' E 122°27'0 0.0
2016-Sep-04 00:03N 29°45' E 122°27'0 0.0
2016-Sep-03 03:21N 29°45' E 122°27'0 0.1
2016-Sep-03 02:33N 29°45' E 122°27'0 0.1
2016-Sep-02 23:27N 29°45' E 122°27'0 0.1
2016-Sep-02 21:33N 29°45' E 122°27'0 0.0
2016-Sep-02 10:33N 29°45' E 122°27'0 0.1
2016-Sep-02 09:21N 29°45' E 122°27'1 0.8
2016-Sep-02 08:34N 29°45' E 122°27'7 7.4
2016-Sep-02 07:33N 29°46' E 122°36'  

Dump ship's entire track history